Time;durP1;ratioP1;P1;durP2;ratioP2;P2;SDS_P1;SDS_P2;PMS_P1;PMS_P2;Temp;Humidity;BMP_temperature;BMP_pressure;BME280_temperature;BME280_humidity;BME280_pressure;Samples;Min_cycle;Max_cycle;Signal;HPM_P1;HPM_P2
2022/09/07 01:09:49;;;;;;;5.80;1.70;;;18.50;99.90;;;;;;4980073;28;20449;-95
2022/09/07 03:41:26;;;;;;;5.60;2.30;;;19.10;99.90;;;;;;4982550;28;20476;-92
2022/09/07 03:43:53;;;;;;;2.70;2.10;;;19.00;99.90;;;;;;4997055;28;20439;-93
2022/09/07 03:48:53;;;;;;;4.33;2.30;;;18.90;99.90;;;;;;4991342;23;20510;-94
2022/09/07 04:43:30;;;;;;;2.30;2.10;;;18.30;99.90;;;;;;4975791;28;20488;-93
2022/09/07 04:45:56;;;;;;;2.37;2.17;;;18.30;99.90;;;;;;4977865;28;20490;-93
2022/09/07 04:48:23;;;;;;;3.63;2.17;;;18.30;99.90;;;;;;4977341;28;20463;-94
2022/09/07 04:50:50;;;;;;;2.30;2.10;;;18.30;99.90;;;;;;4977306;28;20496;-90
2022/09/07 04:53:18;;;;;;;3.00;2.70;;;18.30;99.90;;;;;;4977179;28;20471;-92
2022/09/07 05:01:38;;;;;;;6.13;2.73;;;18.20;99.90;;;;;;4982725;28;20467;-94
2022/09/07 05:04:43;;;;;;;2.50;2.30;;;18.20;99.90;;;;;;4983275;28;20440;-93
2022/09/07 05:07:10;;;;;;;4.63;2.60;;;18.10;99.90;;;;;;4983638;28;20463;-93
2022/09/07 05:09:40;;;;;;;2.60;2.40;;;18.10;99.90;;;;;;4983179;28;20459;-93
2022/09/07 06:32:28;;;;;;;3.00;2.43;;;19.00;99.90;;;;;;3903476;23;20522;-91
2022/09/07 06:34:55;;;;;;;2.83;2.50;;;19.10;99.90;;;;;;4988210;28;20495;-90
2022/09/07 06:37:29;;;;;;;2.83;2.50;;;19.20;99.90;;;;;;4989225;28;20495;-91
2022/09/07 06:40:03;;;;;;;3.00;2.20;;;19.30;99.90;;;;;;4989646;28;20464;-90
2022/09/07 06:42:30;;;;;;;3.37;2.03;;;19.40;99.90;;;;;;4997628;28;20454;-93
2022/09/07 06:44:57;;;;;;;3.93;2.13;;;19.50;99.90;;;;;;4996832;28;20440;-91
2022/09/07 06:47:24;;;;;;;1.90;1.80;;;19.50;99.90;;;;;;4997813;28;20517;-94
2022/09/07 06:49:52;;;;;;;3.17;2.33;;;19.60;99.90;;;;;;5061832;23;20579;-89
2022/09/07 06:52:19;;;;;;;3.07;2.43;;;19.60;99.90;;;;;;4979377;28;20479;-91
2022/09/07 06:54:46;;;;;;;3.63;2.37;;;19.70;99.90;;;;;;4976742;28;20523;-89
2022/09/07 06:57:13;;;;;;;2.70;2.17;;;19.70;99.90;;;;;;4978402;28;20517;-89
2022/09/07 06:59:40;;;;;;;3.27;2.10;;;19.80;99.90;;;;;;4977468;28;20496;-89
2022/09/07 07:02:07;;;;;;;3.67;1.90;;;19.80;99.90;;;;;;4976554;28;20491;-88
2022/09/07 07:04:34;;;;;;;2.23;2.03;;;19.90;99.90;;;;;;4976296;28;20495;-89
2022/09/07 07:07:03;;;;;;;2.90;2.00;;;20.00;99.90;;;;;;4975564;28;20574;-89
2022/09/07 07:09:30;;;;;;;4.53;4.13;;;20.00;99.90;;;;;;4976122;28;20468;-89
2022/09/07 07:11:57;;;;;;;5.30;2.37;;;20.10;99.90;;;;;;4976561;28;20890;-89
2022/09/07 07:14:24;;;;;;;2.37;2.13;;;20.20;99.90;;;;;;4986312;28;20517;-88
2022/09/07 07:16:51;;;;;;;2.27;2.07;;;20.30;99.90;;;;;;4994201;28;20456;-88
2022/09/07 07:19:17;;;;;;;2.20;2.00;;;20.40;99.90;;;;;;4990974;28;20456;-87
2022/09/07 07:21:44;;;;;;;2.43;2.07;;;20.40;99.90;;;;;;4989095;28;20468;-89
2022/09/07 07:24:12;;;;;;;2.37;2.17;;;20.60;99.90;;;;;;4993059;28;20459;-90
2022/09/07 07:26:39;;;;;;;2.20;1.90;;;20.70;99.90;;;;;;4987178;28;20475;-90
2022/09/07 07:29:09;;;;;;;3.37;2.27;;;20.80;99.90;;;;;;4989778;28;20499;-91
2022/09/07 07:31:37;;;;;;;3.50;2.20;;;20.80;99.90;;;;;;4988948;28;20477;-89
2022/09/07 07:34:04;;;;;;;3.67;2.67;;;20.90;99.90;;;;;;4986755;28;20455;-90
2022/09/07 07:36:33;;;;;;;4.37;2.57;;;21.10;99.90;;;;;;4988504;28;20559;-90
2022/09/07 07:39:00;;;;;;;3.17;1.97;;;21.20;99.90;;;;;;4993516;28;20456;-91
2022/09/07 07:41:40;;;;;;;4.97;2.70;;;21.20;99.90;;;;;;4992525;28;20466;-90
2022/09/07 07:44:06;;;;;;;3.90;2.00;;;21.30;99.90;;;;;;4991948;28;20441;-90
2022/09/07 07:46:33;;;;;;;3.53;2.17;;;21.30;99.90;;;;;;4994127;28;20475;-89
2022/09/07 07:49:00;;;;;;;2.37;2.03;;;21.40;99.90;;;;;;4982953;28;20467;-89
2022/09/07 07:51:27;;;;;;;7.47;2.57;;;21.50;99.90;;;;;;4979482;28;20475;-89
2022/09/07 07:53:54;;;;;;;2.53;1.77;;;21.50;99.90;;;;;;4985693;28;20461;-89
2022/09/07 07:56:22;;;;;;;3.90;2.27;;;21.60;99.90;;;;;;4983421;28;20524;-89
2022/09/07 07:58:51;;;;;;;5.53;2.20;;;21.70;99.90;;;;;;4982958;28;20463;-88
2022/09/07 08:01:18;;;;;;;2.50;2.30;;;21.80;99.90;;;;;;4985198;28;20500;-89
2022/09/07 08:03:51;;;;;;;2.87;1.90;;;22.00;99.90;;;;;;4987173;28;20475;-87
2022/09/07 08:06:20;;;;;;;3.77;2.47;;;22.10;99.90;;;;;;4984335;28;20485;-91
2022/09/07 08:08:48;;;;;;;2.77;2.50;;;22.20;99.90;;;;;;4987770;28;20472;-88
2022/09/07 08:11:17;;;;;;;3.60;2.20;;;22.30;99.90;;;;;;4986498;28;20486;-90
2022/09/07 08:13:48;;;;;;;4.53;2.53;;;22.40;99.90;;;;;;4992618;28;20442;-94
2022/09/07 08:16:25;;;;;;;2.93;1.60;;;22.50;99.90;;;;;;4997288;28;20500;-94
2022/09/07 08:18:52;;;;;;;2.17;1.97;;;22.60;99.90;;;;;;4997687;28;20442;-93
2022/09/07 08:21:24;;;;;;;2.20;2.00;;;22.60;99.90;;;;;;5096266;23;20484;-95
2022/09/07 08:23:51;;;;;;;3.07;2.13;;;22.70;99.90;;;;;;4997974;28;20441;-93
2022/09/07 08:28:53;;;;;;;2.97;2.07;;;23.00;99.90;;;;;;1356471;26;20445;-92
2022/09/07 08:33:57;;;;;;;2.63;2.13;;;23.20;99.90;;;;;;5019504;23;20509;-92
2022/09/07 08:36:25;;;;;;;3.87;2.80;;;23.30;99.90;;;;;;4997061;28;20490;-95
2022/09/07 08:38:52;;;;;;;3.33;2.57;;;23.40;99.90;;;;;;4998418;28;20467;-95
2022/09/07 08:42:14;;;;;;;1.83;1.70;;;23.50;99.90;;;;;;4998486;28;20482;-95
2022/09/07 08:44:47;;;;;;;6.57;2.47;;;23.60;99.90;;;;;;4947163;28;20452;-93
2022/09/07 08:47:25;;;;;;;3.97;2.60;;;23.80;99.90;;;;;;5001757;28;20500;-92
2022/09/07 08:50:03;;;;;;;3.43;2.67;;;23.80;99.90;;;;;;5013905;23;20532;-92
2022/09/07 08:52:41;;;;;;;4.33;2.27;;;23.90;99.90;;;;;;5000848;28;20455;-93
2022/09/07 09:02:53;;;;;;;2.43;2.03;;;24.50;99.90;;;;;;3136224;23;20549;-92
2022/09/07 09:05:31;;;;;;;3.87;2.10;;;24.70;99.90;;;;;;4999584;28;20490;-93
2022/09/07 09:08:21;;;;;;;3.20;2.23;;;24.70;99.90;;;;;;4999586;28;20467;-94
2022/09/07 09:11:16;;;;;;;3.33;2.37;;;24.80;99.90;;;;;;5001659;28;20440;-94
2022/09/07 09:21:47;;;;;;;2.20;1.83;;;25.20;99.90;;;;;;3504865;23;20491;-93
2022/09/07 09:24:22;;;;;;;3.93;1.87;;;25.40;99.90;;;;;;5000991;28;20440;-93
2022/09/07 10:40:34;;;;;;;2.50;1.90;;;26.20;99.90;;;;;;3986771;23;20746;-90
2022/09/07 10:46:54;;;;;;;2.57;2.37;;;26.00;99.90;;;;;;5315047;23;20503;-91
2022/09/07 11:26:18;;;;;;;4.20;2.13;;;26.30;99.90;;;;;;3383883;23;20995;-93
2022/09/07 11:28:51;;;;;;;3.60;2.50;;;26.40;99.90;;;;;;4987126;28;20447;-92
2022/09/07 11:31:23;;;;;;;2.80;2.10;;;26.60;99.90;;;;;;4983841;28;20641;-92
2022/09/07 11:34:11;;;;;;;3.47;2.90;;;26.80;99.90;;;;;;4977934;28;20456;-91
2022/09/07 11:36:55;;;;;;;2.47;2.00;;;27.20;99.90;;;;;;4977942;28;20499;-92
2022/09/07 11:39:26;;;;;;;4.73;2.00;;;27.50;99.90;;;;;;4977574;28;20477;-93
2022/09/07 11:42:01;;;;;;;2.80;2.40;;;27.60;99.90;;;;;;4977663;28;20833;-92
2022/09/07 11:44:40;;;;;;;2.77;1.90;;;27.70;99.90;;;;;;4977276;28;20459;-91
2022/09/07 11:47:17;;;;;;;2.33;2.13;;;27.90;99.90;;;;;;4979903;28;20559;-92
2022/09/07 11:49:48;;;;;;;4.53;2.30;;;28.00;99.90;;;;;;4977904;28;20573;-91
2022/09/07 11:52:32;;;;;;;3.20;2.20;;;28.20;99.90;;;;;;4978200;28;20467;-92
2022/09/07 11:55:27;;;;;;;2.90;2.53;;;28.20;99.90;;;;;;4976531;28;20529;-90
2022/09/07 11:58:41;;;;;;;2.17;2.00;;;28.30;99.90;;;;;;4976465;28;20550;-91
2022/09/07 12:01:19;;;;;;;2.30;1.60;;;28.30;99.90;;;;;;4962084;28;20459;-92
2022/09/07 12:04:15;;;;;;;2.20;2.00;;;28.50;99.90;;;;;;4976153;28;20503;-92
2022/09/07 12:07:23;;;;;;;2.17;1.70;;;28.60;99.90;;;;;;4975472;28;20559;-92
2022/09/07 12:10:03;;;;;;;2.50;1.73;;;28.70;99.90;;;;;;4977535;28;20478;-92
2022/09/07 12:12:49;;;;;;;1.50;1.40;;;28.60;99.90;;;;;;4976555;28;20485;-92
2022/09/07 12:15:29;;;;;;;2.03;1.70;;;28.40;99.90;;;;;;4974474;28;20506;-90
2022/09/07 12:18:05;;;;;;;2.53;1.93;;;28.00;99.90;;;;;;4977535;28;20470;-91
2022/09/07 12:20:40;;;;;;;2.07;1.87;;;27.90;99.90;;;;;;4978240;28;20467;-92
2022/09/07 12:23:36;;;;;;;1.90;1.60;;;27.90;99.90;;;;;;4978387;28;20638;-92
2022/09/07 12:49:58;;;;;;;1.87;1.67;;;28.40;99.90;;;;;;4965059;28;20444;-90
2022/09/07 12:56:58;;;;;;;2.40;1.63;;;28.10;99.90;;;;;;4883955;29;20525;-91
2022/09/07 13:03:50;;;;;;;2.33;1.70;;;27.70;99.90;;;;;;4924605;28;20906;-90
2022/09/07 20:20:22;;;;;;;2.07;1.87;;;20.10;99.90;;;;;;5468190;23;20468;-94
2022/09/07 20:22:50;;;;;;;2.17;1.87;;;20.10;99.90;;;;;;4988246;28;20465;-93
2022/09/07 20:25:17;;;;;;;1.70;1.60;;;20.00;99.90;;;;;;4988620;28;20455;-93
2022/09/07 20:27:44;;;;;;;3.10;1.70;;;19.90;99.90;;;;;;4989655;28;20563;-94
2022/09/07 20:30:12;;;;;;;1.70;1.60;;;19.90;99.90;;;;;;4991042;28;20484;-93
2022/09/07 20:32:39;;;;;;;2.37;2.00;;;19.90;99.90;;;;;;4990362;28;20523;-93
2022/09/07 20:35:06;;;;;;;3.00;2.13;;;19.80;99.90;;;;;;4994481;28;20519;-93
2022/09/07 20:37:33;;;;;;;3.27;2.00;;;19.80;99.90;;;;;;4994179;28;20476;-94
2022/09/07 20:40:02;;;;;;;2.10;1.90;;;19.70;99.90;;;;;;4996194;28;20481;-92
2022/09/07 20:42:29;;;;;;;2.13;1.93;;;19.70;99.90;;;;;;4987417;28;20487;-92
2022/09/07 20:44:56;;;;;;;2.30;1.97;;;19.70;99.90;;;;;;4993718;28;20523;-93
2022/09/07 20:47:23;;;;;;;2.10;1.70;;;19.60;99.90;;;;;;4993501;28;20499;-92
2022/09/07 20:49:51;;;;;;;1.70;1.60;;;19.60;99.90;;;;;;4996391;28;20464;-93
2022/09/07 20:52:17;;;;;;;2.90;1.90;;;19.60;99.90;;;;;;4996476;28;20468;-95
2022/09/07 20:54:44;;;;;;;3.87;2.20;;;19.60;99.90;;;;;;4996078;28;20471;-93
2022/09/07 20:57:12;;;;;;;2.87;2.30;;;19.60;99.90;;;;;;4998579;28;20703;-94
2022/09/07 20:59:39;;;;;;;1.93;1.70;;;19.50;99.90;;;;;;5000367;28;20472;-92
2022/09/07 21:02:06;;;;;;;3.30;2.00;;;19.50;99.90;;;;;;4998739;28;20478;-92
2022/09/07 21:04:33;;;;;;;1.80;1.70;;;19.50;99.90;;;;;;4997624;28;20539;-93
2022/09/07 21:07:00;;;;;;;2.30;2.07;;;19.50;99.90;;;;;;4998452;28;20474;-93
2022/09/07 21:09:27;;;;;;;2.43;1.90;;;19.50;99.90;;;;;;4997611;28;20472;-92
2022/09/07 21:11:54;;;;;;;2.83;2.00;;;19.50;99.90;;;;;;4997869;28;20453;-95
2022/09/07 21:14:23;;;;;;;2.20;2.00;;;19.50;99.90;;;;;;5000033;28;20436;-95
2022/09/07 21:16:50;;;;;;;2.60;1.60;;;19.40;99.90;;;;;;5000531;28;20543;-93
2022/09/07 21:19:17;;;;;;;2.13;1.83;;;19.40;99.90;;;;;;4999972;28;20493;-94
2022/09/07 21:21:43;;;;;;;2.20;2.00;;;19.40;99.90;;;;;;4998923;28;20455;-94
2022/09/07 21:24:17;;;;;;;2.30;1.73;;;19.40;99.90;;;;;;5001054;28;20460;-95
2022/09/07 21:26:44;;;;;;;3.03;2.27;;;19.30;99.90;;;;;;5000934;28;20524;-95
2022/09/07 21:29:17;;;;;;;2.20;2.00;;;19.30;99.90;;;;;;5000945;28;20471;-94
2022/09/07 21:31:45;;;;;;;1.77;1.53;;;19.30;99.90;;;;;;5001262;28;20448;-95
2022/09/07 21:34:13;;;;;;;2.43;2.17;;;19.30;99.90;;;;;;4981812;28;20498;-94
2022/09/07 21:36:40;;;;;;;2.80;2.20;;;19.30;99.90;;;;;;4981781;28;20533;-94
2022/09/07 21:39:07;;;;;;;2.30;2.10;;;19.20;99.90;;;;;;4981485;28;20472;-95
2022/09/07 21:41:34;;;;;;;2.47;2.27;;;19.20;99.90;;;;;;4981459;28;20448;-93
2022/09/07 21:44:02;;;;;;;2.10;1.83;;;19.20;99.90;;;;;;4981218;28;20469;-95
2022/09/07 21:46:34;;;;;;;2.70;1.87;;;19.20;99.90;;;;;;4981387;28;20461;-94
2022/09/07 21:49:03;;;;;;;2.43;2.23;;;19.20;99.90;;;;;;4980779;28;20507;-93
2022/09/07 21:51:30;;;;;;;3.13;2.20;;;19.20;99.90;;;;;;4981496;28;20457;-94
2022/09/07 21:53:58;;;;;;;4.23;2.70;;;19.20;99.90;;;;;;4981104;28;20464;-94
2022/09/07 21:56:28;;;;;;;2.47;2.27;;;19.20;99.90;;;;;;5070111;23;20514;-93
2022/09/07 21:58:56;;;;;;;2.30;2.10;;;19.20;99.90;;;;;;4981312;28;20441;-95
2022/09/07 22:01:24;;;;;;;2.77;1.80;;;19.20;99.90;;;;;;4981242;28;20479;-94
2022/09/07 22:03:54;;;;;;;2.23;2.00;;;19.20;99.90;;;;;;4981125;28;20465;-94
2022/09/07 22:06:23;;;;;;;2.70;2.30;;;19.20;99.90;;;;;;4981261;28;20433;-94
2022/09/07 22:08:50;;;;;;;2.23;1.77;;;19.20;99.90;;;;;;4981091;28;20520;-94
2022/09/07 22:11:19;;;;;;;5.70;2.50;;;19.20;99.90;;;;;;4981069;28;20459;-93
2022/09/07 22:13:46;;;;;;;2.30;2.10;;;19.20;99.90;;;;;;4981015;28;20464;-93
2022/09/07 22:16:14;;;;;;;3.53;2.13;;;19.20;99.90;;;;;;4980848;28;20468;-93
2022/09/07 22:18:43;;;;;;;3.50;1.97;;;19.20;99.90;;;;;;4980923;28;20463;-94
2022/09/07 22:21:13;;;;;;;1.90;1.80;;;19.20;99.90;;;;;;4981038;28;20450;-95
2022/09/07 22:23:44;;;;;;;2.30;2.10;;;19.20;99.90;;;;;;4980580;28;20463;-93
2022/09/07 22:26:12;;;;;;;2.50;2.07;;;19.20;99.90;;;;;;4980879;28;20472;-93
2022/09/07 22:28:39;;;;;;;4.93;2.33;;;19.20;99.90;;;;;;4980705;28;20476;-93
2022/09/07 22:31:10;;;;;;;3.30;2.67;;;19.20;99.90;;;;;;4980897;28;20468;-95
2022/09/07 22:33:37;;;;;;;2.50;2.30;;;19.10;99.90;;;;;;4980382;28;20445;-94
2022/09/07 22:36:13;;;;;;;2.77;2.57;;;19.10;99.90;;;;;;4980662;28;20437;-94
2022/09/07 22:38:42;;;;;;;2.30;2.10;;;19.00;99.90;;;;;;4980100;28;20456;-94
2022/09/07 22:41:10;;;;;;;2.40;2.13;;;19.00;99.90;;;;;;4980345;28;20477;-93
2022/09/07 22:43:38;;;;;;;3.40;1.97;;;19.00;99.90;;;;;;4980154;28;20477;-94
2022/09/07 22:46:05;;;;;;;2.30;2.10;;;19.10;99.90;;;;;;4980167;28;20444;-96
2022/09/07 22:48:32;;;;;;;2.10;1.90;;;19.10;99.90;;;;;;4980086;28;20479;-94
2022/09/07 22:51:00;;;;;;;2.40;2.20;;;19.10;99.90;;;;;;4980143;28;20471;-96
2022/09/07 22:53:26;;;;;;;3.00;2.30;;;19.10;99.90;;;;;;4979865;28;20505;-94
2022/09/07 22:55:54;;;;;;;4.23;2.63;;;19.20;99.90;;;;;;4980014;28;20444;-94
2022/09/07 22:58:22;;;;;;;7.47;2.30;;;19.20;99.90;;;;;;4979756;28;20544;-94
2022/09/07 23:00:51;;;;;;;2.90;2.70;;;19.10;99.90;;;;;;4979028;28;20463;-94
2022/09/07 23:03:18;;;;;;;2.90;2.37;;;19.10;99.90;;;;;;4979682;28;20493;-95
2022/09/07 23:05:45;;;;;;;2.90;2.60;;;19.10;99.90;;;;;;4980121;28;20461;-95
2022/09/07 23:08:12;;;;;;;5.10;2.80;;;19.10;99.90;;;;;;4979625;28;20441;-93
2022/09/07 23:10:39;;;;;;;2.40;2.20;;;19.10;99.90;;;;;;4979800;28;20468;-95
2022/09/07 23:13:09;;;;;;;3.40;2.50;;;19.00;99.90;;;;;;4979889;28;20480;-95
2022/09/07 23:15:36;;;;;;;2.33;2.10;;;19.00;99.90;;;;;;4980038;28;20425;-94
2022/09/07 23:18:03;;;;;;;2.70;2.50;;;19.00;99.90;;;;;;4979621;28;20535;-95
2022/09/07 23:20:29;;;;;;;3.87;2.90;;;19.00;99.90;;;;;;4979802;28;20472;-95
2022/09/07 23:22:56;;;;;;;3.13;2.67;;;19.00;99.90;;;;;;4979622;28;20451;-94
2022/09/07 23:25:23;;;;;;;3.80;2.40;;;19.00;99.90;;;;;;4979998;28;20449;-94
2022/09/07 23:27:50;;;;;;;2.93;2.73;;;19.00;99.90;;;;;;4980116;28;20436;-95
2022/09/07 23:30:18;;;;;;;3.67;2.50;;;19.00;99.90;;;;;;4979873;28;20457;-94
2022/09/07 23:32:45;;;;;;;3.80;2.47;;;19.00;99.90;;;;;;4979716;28;20447;-96
2022/09/07 23:35:12;;;;;;;2.83;2.53;;;19.00;99.90;;;;;;4979681;28;20467;-94
2022/09/07 23:37:39;;;;;;;4.10;3.70;;;19.00;99.90;;;;;;4979735;28;20480;-96
2022/09/07 23:40:07;;;;;;;3.23;2.40;;;19.00;99.90;;;;;;4979660;28;20556;-95
2022/09/07 23:42:34;;;;;;;2.87;2.60;;;19.00;99.90;;;;;;4979505;28;20436;-94
2022/09/07 23:45:00;;;;;;;2.67;2.40;;;19.00;99.90;;;;;;4979658;28;20471;-95
2022/09/07 23:47:29;;;;;;;2.80;2.60;;;19.00;99.90;;;;;;4979617;28;20447;-95
2022/09/07 23:49:58;;;;;;;3.70;2.90;;;18.90;99.90;;;;;;4979382;28;20540;-94
2022/09/07 23:52:24;;;;;;;3.23;2.90;;;18.90;99.90;;;;;;4979254;28;20471;-94
2022/09/07 23:54:51;;;;;;;2.97;2.77;;;18.90;99.90;;;;;;4979556;28;20468;-94
2022/09/07 23:57:18;;;;;;;3.03;2.50;;;18.90;99.90;;;;;;4979326;28;20475;-95
2022/09/07 23:59:45;;;;;;;2.20;2.03;;;18.90;99.90;;;;;;4979543;28;20529;-94
